createdAt,value
2023-09-04T00:00:03.507Z,53.29
2023-09-04T00:02:30.015Z,53.29
2023-09-04T00:04:56.490Z,53.20
2023-09-04T00:07:23.005Z,53.36
2023-09-04T00:09:49.476Z,53.45
2023-09-04T00:12:15.967Z,53.53
2023-09-04T00:14:42.507Z,53.24
2023-09-04T00:17:09.031Z,53.10
2023-09-04T00:19:35.711Z,53.39
2023-09-04T00:22:02.251Z,53.39
2023-09-04T00:24:28.740Z,53.66
2023-09-04T00:26:55.238Z,53.20
2023-09-04T00:29:21.666Z,52.90
2023-09-04T00:31:48.237Z,53.20
2023-09-04T00:34:14.743Z,53.06
2023-09-04T00:36:41.275Z,53.10
2023-09-04T00:39:07.883Z,53.10
2023-09-04T00:41:34.446Z,53.08
2023-09-04T00:44:00.902Z,53.18
2023-09-04T00:46:27.596Z,53.25
2023-09-04T00:48:54.849Z,53.29
2023-09-04T00:51:21.386Z,53.22
2023-09-04T00:53:48.683Z,53.00
2023-09-04T00:56:16.105Z,53.19
2023-09-04T00:58:42.749Z,53.10
2023-09-04T01:01:09.487Z,53.26
2023-09-04T01:03:36.074Z,53.23
2023-09-04T01:06:02.657Z,53.18
2023-09-04T01:08:29.283Z,53.07
2023-09-04T01:11:01.839Z,53.09
2023-09-04T01:13:38.450Z,53.34
2023-09-04T01:16:07.019Z,53.36
2023-09-04T01:18:35.867Z,53.18
2023-09-04T01:21:03.672Z,53.50
2023-09-04T01:23:30.382Z,53.49
2023-09-04T01:26:15.387Z,53.06
2023-09-04T01:29:00.524Z,52.98
2023-09-04T01:31:48.631Z,52.94
2023-09-04T01:34:20.670Z,53.34
2023-09-04T01:36:48.486Z,53.53
2023-09-04T01:39:15.346Z,53.54
2023-09-04T01:41:41.800Z,53.39
2023-09-04T01:44:08.552Z,53.12
2023-09-04T01:46:35.781Z,53.15
2023-09-04T01:49:02.388Z,52.73
2023-09-04T01:51:28.870Z,53.35
2023-09-04T01:53:55.325Z,53.22
2023-09-04T01:56:21.781Z,53.29
2023-09-04T01:58:48.207Z,53.42
2023-09-04T02:01:15.475Z,53.09
2023-09-04T02:03:44.215Z,53.48
2023-09-04T02:06:10.694Z,53.29
2023-09-04T02:08:37.195Z,53.29
2023-09-04T02:11:03.685Z,53.51
2023-09-04T02:13:30.266Z,53.38
2023-09-04T02:15:56.873Z,53.03
2023-09-04T02:18:23.661Z,53.08
2023-09-04T02:20:50.390Z,53.14
2023-09-04T02:23:16.833Z,53.58
2023-09-04T02:25:43.678Z,53.37
2023-09-04T02:28:10.140Z,53.17
2023-09-04T02:30:40.204Z,52.80
2023-09-04T02:33:06.934Z,53.05
2023-09-04T02:35:34.739Z,52.83
2023-09-04T02:38:01.196Z,53.17
2023-09-04T02:40:27.651Z,53.19
2023-09-04T02:42:54.140Z,53.43
2023-09-04T02:45:21.422Z,53.17
2023-09-04T02:47:47.931Z,53.27
2023-09-04T02:50:14.442Z,53.35
2023-09-04T02:52:40.919Z,53.72
2023-09-04T02:55:07.800Z,53.66
2023-09-04T02:57:34.362Z,54.01
2023-09-04T03:00:01.916Z,53.76
2023-09-04T03:02:28.554Z,53.96
2023-09-04T03:04:55.489Z,53.87
2023-09-04T03:07:28.036Z,53.58
2023-09-04T03:09:56.638Z,53.95
2023-09-04T03:12:25.968Z,53.68
2023-09-04T03:14:58.633Z,54.37
2023-09-04T03:17:26.019Z,54.18
2023-09-04T03:19:56.967Z,54.41
2023-09-04T03:22:23.921Z,53.97
2023-09-04T03:24:50.532Z,54.27
2023-09-04T03:27:17.550Z,54.34
2023-09-04T03:29:44.046Z,54.18
2023-09-04T03:32:10.822Z,54.30
2023-09-04T03:34:38.092Z,54.54
2023-09-04T03:37:04.843Z,53.80
2023-09-04T03:39:35.454Z,53.89
2023-09-04T03:42:01.889Z,53.83
2023-09-04T03:44:28.317Z,53.79
2023-09-04T03:46:54.796Z,53.56
2023-09-04T03:49:21.325Z,53.74
2023-09-04T03:51:47.801Z,53.68
2023-09-04T03:54:14.218Z,53.92
2023-09-04T03:56:40.673Z,53.61
2023-09-04T03:59:07.100Z,54.15
2023-09-04T04:01:34.337Z,53.41
2023-09-04T04:04:01.335Z,53.60
2023-09-04T04:06:28.004Z,53.74
2023-09-04T04:08:57.483Z,53.90
2023-09-04T04:11:24.117Z,54.05
2023-09-04T04:13:50.708Z,53.93
2023-09-04T04:16:17.205Z,53.97
2023-09-04T04:18:43.722Z,53.60
2023-09-04T04:21:10.220Z,53.77
2023-09-04T04:23:36.718Z,53.97
2023-09-04T04:26:04.227Z,54.00
2023-09-04T04:28:30.744Z,54.03
2023-09-04T04:30:58.565Z,53.64
2023-09-04T04:33:25.123Z,53.53
2023-09-04T04:35:55.016Z,53.38
2023-09-04T04:38:22.222Z,53.38
2023-09-04T04:40:48.919Z,53.34
2023-09-04T04:43:15.449Z,53.47
2023-09-04T04:45:42.039Z,53.45
2023-09-04T04:48:08.653Z,53.27
2023-09-04T04:50:35.210Z,53.52
2023-09-04T04:53:01.673Z,53.46
2023-09-04T04:55:28.147Z,53.70
2023-09-04T04:57:54.793Z,53.95
2023-09-04T05:00:21.265Z,53.61
2023-09-04T05:02:47.737Z,53.81
2023-09-04T05:05:14.187Z,53.63
2023-09-04T05:07:42.822Z,53.76
2023-09-04T05:10:10.304Z,53.81
2023-09-04T05:12:37.061Z,54.18
2023-09-04T05:15:05.114Z,53.94
2023-09-04T05:17:31.586Z,54.08
2023-09-04T05:19:58.121Z,54.50
2023-09-04T05:22:24.615Z,54.34
2023-09-04T05:24:51.034Z,54.41
2023-09-04T05:27:17.510Z,54.50
2023-09-04T05:29:43.948Z,54.99
2023-09-04T05:32:10.429Z,55.28
2023-09-04T05:34:40.912Z,55.10
2023-09-04T05:37:08.718Z,54.67
2023-09-04T05:39:35.188Z,54.50
2023-09-04T05:42:01.653Z,54.53
2023-09-04T05:44:28.171Z,54.60
2023-09-04T05:46:54.663Z,54.42
2023-09-04T05:49:21.159Z,53.99
2023-09-04T05:51:47.629Z,54.03
2023-09-04T05:54:14.165Z,53.66
2023-09-04T05:56:40.642Z,53.83
2023-09-04T05:59:07.118Z,53.24
2023-09-04T06:01:33.582Z,53.34
2023-09-04T06:04:00.125Z,53.18
2023-09-04T06:06:26.664Z,53.06
2023-09-04T06:08:53.159Z,52.87
2023-09-04T06:11:19.602Z,52.58
2023-09-04T06:13:46.099Z,52.64
2023-09-04T06:16:13.992Z,52.35
2023-09-04T06:18:40.483Z,52.37
2023-09-04T06:21:06.981Z,52.22
2023-09-04T06:23:33.523Z,52.01
2023-09-04T06:26:03.701Z,52.23
2023-09-04T06:28:30.163Z,51.94
2023-09-04T06:30:57.018Z,51.88
2023-09-04T06:33:25.386Z,51.68
2023-09-04T06:35:51.974Z,51.68
2023-09-04T06:38:18.410Z,51.67
2023-09-04T06:40:44.860Z,51.38
2023-09-04T06:43:11.349Z,50.94
2023-09-04T06:45:38.942Z,51.20
2023-09-04T06:48:08.512Z,51.09
2023-09-04T06:50:35.020Z,51.07
2023-09-04T06:53:01.521Z,50.86
2023-09-04T06:55:27.987Z,50.49
2023-09-04T06:57:54.446Z,50.71
2023-09-04T07:00:20.994Z,50.85
2023-09-04T07:02:47.983Z,50.62
2023-09-04T07:05:14.520Z,50.74
2023-09-04T07:07:40.968Z,50.55
2023-09-04T07:10:07.780Z,50.14
2023-09-04T07:12:35.589Z,50.42
2023-09-04T07:15:02.076Z,50.50
2023-09-04T07:17:28.678Z,50.16
2023-09-04T07:19:55.260Z,50.08
2023-09-04T07:22:21.727Z,50.09
2023-09-04T07:24:48.225Z,49.87
2023-09-04T07:27:14.745Z,50.10
2023-09-04T07:29:41.197Z,49.81
2023-09-04T07:32:07.871Z,49.88
2023-09-04T07:34:36.496Z,49.39
2023-09-04T07:37:03.990Z,49.59
2023-09-04T07:39:30.546Z,49.52
2023-09-04T07:41:59.891Z,49.07
2023-09-04T07:44:26.358Z,49.54
2023-09-04T07:46:54.111Z,49.73
2023-09-04T07:49:20.821Z,49.42
2023-09-04T07:51:47.681Z,49.32
2023-09-04T07:54:14.143Z,49.57
2023-09-04T07:56:42.627Z,49.44
2023-09-04T07:59:09.796Z,49.38
2023-09-04T08:01:36.326Z,49.45
2023-09-04T08:04:04.116Z,49.15
2023-09-04T08:06:30.826Z,49.55
2023-09-04T08:08:57.332Z,48.97
2023-09-04T08:11:23.809Z,48.44
2023-09-04T08:13:50.364Z,48.96
2023-09-04T08:16:16.989Z,48.71
2023-09-04T08:18:43.483Z,48.80
2023-09-04T08:21:10.041Z,48.57
2023-09-04T08:23:36.511Z,48.30
2023-09-04T08:26:04.381Z,48.24
2023-09-04T08:28:31.014Z,48.12
2023-09-04T08:30:58.085Z,47.95
2023-09-04T08:33:25.168Z,47.77
2023-09-04T08:35:52.060Z,47.68
2023-09-04T08:38:18.637Z,47.28
2023-09-04T08:40:45.262Z,47.47
2023-09-04T08:43:11.893Z,47.21
2023-09-04T08:45:41.163Z,47.18
2023-09-04T08:48:09.421Z,47.10
2023-09-04T08:50:38.988Z,47.14
2023-09-04T08:53:05.527Z,47.15
2023-09-04T08:55:35.169Z,46.60
2023-09-04T08:58:02.370Z,47.02
2023-09-04T09:00:29.913Z,46.84
2023-09-04T09:03:01.831Z,47.05
2023-09-04T09:05:29.830Z,47.01
2023-09-04T09:07:56.386Z,46.22
2023-09-04T09:10:23.681Z,46.61
2023-09-04T09:12:50.267Z,46.47
2023-09-04T09:15:18.615Z,46.63
2023-09-04T09:17:54.344Z,46.52
2023-09-04T09:20:30.245Z,46.88
2023-09-04T09:22:57.064Z,46.91
2023-09-04T09:25:23.751Z,46.60
2023-09-04T09:27:50.297Z,46.97
2023-09-04T09:30:16.796Z,46.32
2023-09-04T09:32:43.650Z,45.97
2023-09-04T09:35:10.635Z,46.15
2023-09-04T09:37:37.257Z,46.52
2023-09-04T09:40:06.430Z,46.49
2023-09-04T09:42:32.912Z,46.42
2023-09-04T09:44:59.360Z,45.98
2023-09-04T09:47:27.186Z,46.17
2023-09-04T09:49:55.750Z,45.89
2023-09-04T09:52:22.228Z,46.32
2023-09-04T09:54:48.714Z,45.96
2023-09-04T09:57:16.754Z,46.11
2023-09-04T09:59:44.641Z,46.35
2023-09-04T10:02:16.422Z,46.31
2023-09-04T10:04:43.016Z,46.09
2023-09-04T10:07:10.776Z,45.88
2023-09-04T10:09:43.410Z,45.50
2023-09-04T10:12:16.346Z,46.12
2023-09-04T10:14:43.744Z,45.67
2023-09-04T10:17:15.695Z,45.88
2023-09-04T10:19:43.478Z,45.57
2023-09-04T10:22:13.132Z,45.50
2023-09-04T10:24:42.811Z,45.55
2023-09-04T10:27:10.397Z,45.76
2023-09-04T10:29:46.257Z,45.79
2023-09-04T10:32:13.670Z,45.78
2023-09-04T10:34:41.377Z,45.92
2023-09-04T10:37:12.116Z,45.75
2023-09-04T10:39:39.774Z,46.51
2023-09-04T10:42:07.026Z,46.48
2023-09-04T10:44:50.812Z,46.05
2023-09-04T10:47:17.581Z,46.50
2023-09-04T10:49:44.471Z,46.10
2023-09-04T10:52:11.318Z,46.23
2023-09-04T10:54:38.310Z,46.06
2023-09-04T10:57:09.165Z,46.22
2023-09-04T10:59:54.046Z,46.86
2023-09-04T11:02:34.061Z,46.49
2023-09-04T11:05:04.210Z,46.75
2023-09-04T11:07:36.187Z,46.30
2023-09-04T11:10:04.731Z,46.75
2023-09-04T11:12:36.316Z,46.81
2023-09-04T11:15:10.449Z,46.67
2023-09-04T11:17:38.873Z,47.12
2023-09-04T11:20:05.634Z,46.29
2023-09-04T11:22:33.691Z,46.77
2023-09-04T11:25:00.253Z,46.78
2023-09-04T11:27:27.180Z,46.69
2023-09-04T11:29:53.731Z,47.16
2023-09-04T11:32:20.558Z,47.18
2023-09-04T11:34:48.380Z,46.52
2023-09-04T11:37:14.861Z,46.94
2023-09-04T11:40:01.020Z,47.00
2023-09-04T11:42:29.801Z,47.19
2023-09-04T11:44:56.295Z,47.30
2023-09-04T11:47:23.448Z,47.45
2023-09-04T11:49:50.475Z,47.80
2023-09-04T11:52:20.178Z,47.92
2023-09-04T11:54:46.708Z,47.91
2023-09-04T11:57:13.580Z,47.50
2023-09-04T11:59:41.469Z,47.77
2023-09-04T12:02:08.941Z,47.15
2023-09-04T12:04:35.824Z,47.38
2023-09-04T12:07:03.110Z,47.77
2023-09-04T12:09:29.954Z,47.59
2023-09-04T12:11:57.389Z,47.44
2023-09-04T12:14:23.875Z,47.46
2023-09-04T12:16:50.420Z,47.77
2023-09-04T12:19:17.998Z,47.34
2023-09-04T12:21:44.995Z,47.69
2023-09-04T12:24:12.405Z,47.82
2023-09-04T12:26:39.042Z,48.17
2023-09-04T12:29:05.515Z,47.99
2023-09-04T12:31:32.187Z,48.10
2023-09-04T12:33:58.827Z,48.31
2023-09-04T12:36:25.285Z,48.17
2023-09-04T12:38:51.774Z,48.39
2023-09-04T12:41:18.225Z,48.56
2023-09-04T12:43:45.515Z,48.35
2023-09-04T12:46:13.113Z,48.00
2023-09-04T12:48:41.653Z,48.51
2023-09-04T12:51:08.721Z,48.36
2023-09-04T12:53:35.428Z,48.37
2023-09-04T12:56:04.407Z,48.18
2023-09-04T12:58:31.186Z,47.72
2023-09-04T13:00:57.822Z,47.77
2023-09-04T13:03:25.228Z,47.73
2023-09-04T13:05:53.322Z,48.22
2023-09-04T13:08:19.763Z,48.26
2023-09-04T13:10:46.235Z,47.74
2023-09-04T13:13:12.725Z,48.20
2023-09-04T13:15:39.513Z,48.01
2023-09-04T13:18:06.100Z,48.22
2023-09-04T13:20:32.671Z,48.17
2023-09-04T13:22:59.138Z,48.30
2023-09-04T13:25:26.095Z,48.32
2023-09-04T13:27:52.547Z,48.37
2023-09-04T13:30:19.897Z,48.67
2023-09-04T13:32:46.448Z,48.66
2023-09-04T13:35:12.929Z,48.38
2023-09-04T13:37:39.597Z,49.04
2023-09-04T13:40:07.200Z,48.49
2023-09-04T13:42:33.687Z,48.70
2023-09-04T13:45:01.138Z,48.68
2023-09-04T13:47:28.030Z,48.45
2023-09-04T13:49:55.419Z,48.68
2023-09-04T13:52:25.344Z,48.66
2023-09-04T13:54:53.164Z,48.37
2023-09-04T13:57:19.940Z,48.82
2023-09-04T13:59:46.604Z,48.92
2023-09-04T14:02:13.093Z,48.77
2023-09-04T14:04:39.667Z,48.74
2023-09-04T14:07:06.127Z,48.99
2023-09-04T14:12:00.160Z,48.88
2023-09-04T14:14:26.826Z,48.94
2023-09-04T14:16:53.332Z,48.38
2023-09-04T14:19:19.957Z,48.97
2023-09-04T14:21:46.454Z,48.74
2023-09-04T14:24:15.071Z,48.62
2023-09-04T14:26:41.593Z,48.88
2023-09-04T14:29:08.178Z,48.87
2023-09-04T14:31:34.675Z,48.50
2023-09-04T14:34:04.549Z,48.73
2023-09-04T14:36:31.214Z,48.74
2023-09-04T14:38:59.975Z,49.13
2023-09-04T14:41:33.378Z,49.02
2023-09-04T14:44:00.112Z,48.82
2023-09-04T14:46:26.797Z,49.11
2023-09-04T14:48:54.178Z,48.63
2023-09-04T14:51:21.237Z,48.72
2023-09-04T14:53:50.623Z,48.69
2023-09-04T14:56:17.194Z,48.81
2023-09-04T14:58:43.709Z,48.71
2023-09-04T15:01:19.710Z,48.74
2023-09-04T15:03:47.255Z,49.27
2023-09-04T15:06:14.223Z,49.32
2023-09-04T15:08:40.834Z,49.26
2023-09-04T15:11:14.528Z,49.11
2023-09-04T15:13:43.822Z,49.48
2023-09-04T15:16:10.796Z,49.42
2023-09-04T15:18:37.411Z,49.44
2023-09-04T15:21:05.866Z,49.52
2023-09-04T15:23:32.698Z,49.60
2023-09-04T15:25:59.227Z,49.37
2023-09-04T15:28:26.027Z,49.45
2023-09-04T15:30:52.778Z,49.61
2023-09-04T15:33:19.293Z,49.60
2023-09-04T15:35:48.382Z,49.63
2023-09-04T15:38:15.398Z,49.90
2023-09-04T15:40:41.955Z,49.77
2023-09-04T15:43:08.487Z,49.61
2023-09-04T15:45:39.388Z,49.97
2023-09-04T15:48:06.150Z,49.68
2023-09-04T15:50:32.639Z,48.83
2023-09-04T15:53:00.446Z,48.84
2023-09-04T15:55:26.872Z,48.40
2023-09-04T15:57:53.301Z,48.33
2023-09-04T16:00:19.740Z,48.44
2023-09-04T16:02:46.239Z,48.76
2023-09-04T16:05:12.739Z,48.87
2023-09-04T16:07:39.250Z,48.62
2023-09-04T16:10:05.991Z,48.60
2023-09-04T16:12:32.443Z,48.50
2023-09-04T16:14:58.945Z,48.49
2023-09-04T16:17:25.442Z,48.96
2023-09-04T16:19:52.013Z,48.29
2023-09-04T16:22:18.535Z,48.67
2023-09-04T16:24:46.232Z,48.53
2023-09-04T16:27:12.979Z,48.44
2023-09-04T16:29:39.482Z,48.73
2023-09-04T16:32:06.554Z,48.50
2023-09-04T16:34:33.125Z,49.05
2023-09-04T16:36:59.599Z,49.02
2023-09-04T16:39:26.049Z,49.13
2023-09-04T16:41:52.495Z,49.12
2023-09-04T16:44:18.935Z,48.36
2023-09-04T16:46:46.391Z,48.51
2023-09-04T16:49:12.980Z,48.55
2023-09-04T16:51:50.625Z,48.52
2023-09-04T16:54:22.569Z,48.47
2023-09-04T16:56:49.006Z,48.71
2023-09-04T16:59:15.477Z,48.65
2023-09-04T17:01:42.000Z,48.86
2023-09-04T17:04:09.392Z,48.98
2023-09-04T17:06:35.967Z,49.20
2023-09-04T17:09:03.187Z,49.14
2023-09-04T17:11:29.792Z,49.07
2023-09-04T17:13:56.241Z,49.15
2023-09-04T17:16:22.815Z,49.41
2023-09-04T17:18:49.559Z,49.37
2023-09-04T17:21:16.096Z,49.53
2023-09-04T17:23:42.555Z,49.47
2023-09-04T17:26:09.080Z,49.86
2023-09-04T17:28:35.503Z,49.86
2023-09-04T17:31:07.281Z,49.88
2023-09-04T17:33:34.078Z,49.82
2023-09-04T17:36:03.731Z,49.99
2023-09-04T17:38:40.823Z,50.03
2023-09-04T17:41:08.190Z,49.95
2023-09-04T17:43:34.902Z,49.82
2023-09-04T17:46:01.460Z,49.58
2023-09-04T17:48:28.151Z,49.79
2023-09-04T17:50:54.708Z,49.79
2023-09-04T17:53:21.439Z,49.84
2023-09-04T17:55:47.983Z,49.88
2023-09-04T17:58:14.846Z,50.02
2023-09-04T18:00:41.603Z,49.98
2023-09-04T18:03:08.411Z,50.01
2023-09-04T18:05:35.671Z,49.76
2023-09-04T18:08:02.172Z,49.89
2023-09-04T18:10:28.699Z,49.96
2023-09-04T18:12:55.185Z,49.49
2023-09-04T18:15:24.403Z,49.91
2023-09-04T18:17:51.161Z,50.05
2023-09-04T18:20:17.922Z,49.75
2023-09-04T18:22:47.442Z,49.74
2023-09-04T18:25:16.203Z,49.97
2023-09-04T18:27:46.073Z,49.69
2023-09-04T18:30:15.031Z,49.62
2023-09-04T18:32:41.617Z,49.73
2023-09-04T18:35:08.441Z,49.69
2023-09-04T18:37:34.990Z,49.35
2023-09-04T18:40:01.506Z,49.67
2023-09-04T18:42:28.068Z,49.78
2023-09-04T18:44:54.668Z,49.69
2023-09-04T18:47:21.170Z,49.59
2023-09-04T18:49:52.180Z,49.80
2023-09-04T18:52:20.905Z,50.02
2023-09-04T18:54:48.276Z,49.97
2023-09-04T18:57:15.578Z,49.93
2023-09-04T18:59:42.199Z,50.05
2023-09-04T19:02:08.960Z,49.96
2023-09-04T19:04:38.770Z,50.09
2023-09-04T19:07:05.255Z,49.84
2023-09-04T19:09:32.629Z,49.78
2023-09-04T19:11:59.158Z,49.81
2023-09-04T19:14:25.657Z,49.92
2023-09-04T19:16:52.118Z,49.96
2023-09-04T19:19:18.706Z,49.85
2023-09-04T19:21:45.676Z,49.83
2023-09-04T19:24:12.281Z,49.36
2023-09-04T19:26:38.913Z,49.38
2023-09-04T19:29:05.434Z,50.05
2023-09-04T19:31:32.118Z,49.65
2023-09-04T19:33:58.653Z,49.93
2023-09-04T19:36:27.595Z,50.04
2023-09-04T19:38:54.658Z,49.99
2023-09-04T19:41:21.558Z,49.84
2023-09-04T19:43:48.073Z,50.34
2023-09-04T19:46:14.591Z,50.28
2023-09-04T19:48:41.122Z,50.41
2023-09-04T19:51:07.603Z,50.92
2023-09-04T19:53:34.110Z,50.62
2023-09-04T19:56:00.612Z,50.40
2023-09-04T19:58:27.466Z,50.73
2023-09-04T20:00:54.172Z,50.82
2023-09-04T20:03:20.707Z,50.19
2023-09-04T20:05:47.353Z,50.53
2023-09-04T20:08:13.809Z,50.47
2023-09-04T20:10:41.057Z,50.87
2023-09-04T20:13:07.581Z,50.64
2023-09-04T20:15:34.081Z,50.64
2023-09-04T20:18:01.783Z,50.90
2023-09-04T20:20:28.464Z,50.69
2023-09-04T20:22:55.350Z,50.74
2023-09-04T20:25:21.877Z,50.71
2023-09-04T20:27:48.420Z,51.15
2023-09-04T20:30:14.931Z,51.01
2023-09-04T20:32:41.701Z,51.22
2023-09-04T20:35:08.674Z,51.22
2023-09-04T20:37:36.576Z,51.20
2023-09-04T20:40:03.622Z,51.12
2023-09-04T20:42:31.277Z,50.99
2023-09-04T20:44:57.900Z,51.09
2023-09-04T20:47:24.398Z,51.12
2023-09-04T20:49:50.884Z,50.81
2023-09-04T20:52:17.397Z,51.17
2023-09-04T20:54:43.927Z,51.00
2023-09-04T20:57:10.462Z,50.94
2023-09-04T20:59:36.919Z,50.69
2023-09-04T21:02:03.455Z,50.96
2023-09-04T21:04:29.976Z,50.97
2023-09-04T21:06:56.422Z,50.98
2023-09-04T21:09:22.810Z,51.30
2023-09-04T21:12:07.808Z,50.91
2023-09-04T21:14:53.030Z,51.18
2023-09-04T21:17:38.159Z,51.20
2023-09-04T21:20:23.263Z,50.86
2023-09-04T21:23:08.490Z,51.08
2023-09-04T21:25:53.666Z,51.00
2023-09-04T21:28:38.904Z,51.05
2023-09-04T21:31:24.255Z,50.95
2023-09-04T21:34:09.382Z,51.06
2023-09-04T21:36:54.557Z,50.91
2023-09-04T21:39:39.629Z,50.99
2023-09-04T21:42:24.715Z,51.09
2023-09-04T21:45:10.039Z,50.88
2023-09-04T21:47:55.095Z,50.97
2023-09-04T21:50:40.311Z,50.78
2023-09-04T21:53:25.852Z,50.84
2023-09-04T21:58:56.128Z,51.16
2023-09-04T22:01:41.310Z,50.94
2023-09-04T22:04:26.354Z,50.97
2023-09-04T22:07:11.451Z,51.03
2023-09-04T22:09:56.572Z,51.00
2023-09-04T22:12:41.824Z,51.00
2023-09-04T22:15:27.045Z,51.11
2023-09-04T22:18:12.029Z,51.16
2023-09-04T22:20:57.263Z,50.93
2023-09-04T22:23:42.566Z,51.12
2023-09-04T22:26:27.736Z,51.17
2023-09-04T22:29:13.040Z,51.05
2023-09-04T22:31:58.427Z,51.18
2023-09-04T22:34:43.601Z,51.17
2023-09-04T22:37:28.912Z,51.09
2023-09-04T22:40:13.727Z,50.92
2023-09-04T22:42:58.944Z,51.50
2023-09-04T22:45:44.118Z,51.18
2023-09-04T22:48:29.513Z,51.05
2023-09-04T22:51:14.653Z,51.13
2023-09-04T22:53:59.755Z,50.93
2023-09-04T22:56:46.692Z,51.32
2023-09-04T22:59:31.904Z,51.13
2023-09-04T23:02:16.751Z,51.37
2023-09-04T23:05:01.961Z,51.18
2023-09-04T23:07:47.150Z,51.30
2023-09-04T23:10:32.436Z,51.39
2023-09-04T23:13:17.656Z,51.30
2023-09-04T23:16:02.928Z,51.43
2023-09-04T23:18:48.079Z,51.40
2023-09-04T23:21:14.462Z,51.39
2023-09-04T23:23:49.793Z,51.48
2023-09-04T23:26:36.901Z,51.61
2023-09-04T23:29:04.598Z,51.68
2023-09-04T23:31:31.121Z,51.73
2023-09-04T23:34:00.971Z,51.71
2023-09-04T23:36:33.872Z,51.73
2023-09-04T23:39:10.461Z,52.02
2023-09-04T23:41:55.650Z,51.88
2023-09-04T23:44:40.611Z,52.07
2023-09-04T23:47:07.137Z,51.71
2023-09-04T23:49:34.317Z,51.70
2023-09-04T23:52:00.907Z,51.91
2023-09-04T23:54:30.056Z,51.78
2023-09-04T23:56:57.317Z,51.95
2023-09-04T23:59:24.519Z,51.86
